Terminal Aerodrome Forecast
Issued by NWS

Home | Current Version | Previous Version | Text Only | Print | Product List | Glossary On
Versions: 1 2 3 4 5 6 7 8 9 10 11 12 13 14 15 16 17 18 19 20 21 22 23 24 25 26 27 28 29 30 31 32 33 34 35
000
FTUS43 KDDC 021040 AAB
TAFHYS
TAF AMD
KHYS 021040Z 0211/0306 11005KT 5SM BR BKN011
     FM021400 14012KT P6SM BKN025
     FM021500 17016G24KT P6SM SCT020
     FM021900 18021G30KT P6SM SCT120
     FM030200 16014KT P6SM SCT250=

USA.gov is the U.S. government's official web portal to all federal, state and local government web resources and services.